Upton, New York
Current Conditions -  °F | °C
As of 12:56 AM on Sunday 23 Nov 2014 (Local Time) from KHWV Reporting Station
Overcast Overcast  
Wind Chill: 40°   Ceiling: 9000
Heat Index: 45°   Visibility: 10mi
Dew Point: 26°   Wind: 9mph
Humidity: 48%   Direction: 220°SW
Pressure: 30.2"   Gusts: 21mph
Location:  40.87°N, 72.89°W
Report Text: KHWV 230556Z AUTO 22008G18KT 10SM BKN090 OVC120 07/M03 A3020 RMK AO2 SLP226 T00721033 10072 20061 58007 TSNO
Loading
Personal Weather Stations






























Interactive Weather Map New forecast layout! Learn more

10-Day Weather Forecast

Advertisements
Track Severe Weather on mobile